Time;durP1;ratioP1;P1;durP2;ratioP2;P2;SDS_P1;SDS_P2;PMS_P1;PMS_P2;Temp;Humidity;BMP_temperature;BMP_pressure;BME280_temperature;BME280_humidity;BME280_pressure;Samples;Min_cycle;Max_cycle;Signal;HPM_P1;HPM_P2
2022/12/15 00:40:41;;;;;;;38.35;5.93;;;;;;;23.22;55.05;98148.09;7315456;19;129473;-66
2022/12/15 00:43:10;;;;;;;27.60;5.07;;;;;;;23.26;54.44;98151.94;7316517;19;128973;-66
2022/12/15 00:48:20;;;;;;;46.90;6.32;;;;;;;23.37;54.00;98163.81;7317897;19;128977;-67
2022/12/15 00:50:51;;;;;;;39.93;5.67;;;;;;;23.46;54.31;98166.13;7314381;19;129410;-67
2022/12/15 01:20:36;;;;;;;29.00;4.95;;;;;;;23.02;55.65;98197.63;7327482;19;129259;-67
2022/12/15 01:23:02;;;;;;;32.42;5.32;;;;;;;23.05;55.23;98194.69;7314373;19;129562;-68
2022/12/15 01:25:28;;;;;;;35.78;5.82;;;;;;;23.08;55.62;98198.72;7314345;19;129562;-69
2022/12/15 01:27:54;;;;;;;29.57;5.00;;;;;;;23.14;55.21;98209.28;7315571;19;128987;-68
2022/12/15 01:30:23;;;;;;;54.75;6.88;;;;;;;23.18;55.05;98209.75;7308662;19;129987;-66
2022/12/15 01:32:48;;;;;;;37.85;5.30;;;;;;;23.16;54.53;98206.50;7315754;19;130725;-67
2022/12/15 01:35:14;;;;;;;59.47;7.00;;;;;;;23.28;54.18;98218.16;7314801;19;129159;-65
2022/12/15 01:37:40;;;;;;;28.47;4.87;;;;;;;23.35;54.25;98219.06;7314209;19;129351;-67
2022/12/15 01:42:52;;;;;;;36.60;5.15;;;;;;;23.41;54.32;98220.94;7317122;19;129690;-64
2022/12/15 01:45:23;;;;;;;29.93;4.70;;;;;;;23.46;53.69;98228.25;7314722;19;128993;-66
2022/12/15 01:48:08;;;;;;;29.38;4.40;;;;;;;23.43;53.51;98218.97;7313340;19;129502;-64
2022/12/15 01:50:39;;;;;;;20.35;4.38;;;;;;;23.51;54.28;98236.38;7311852;19;133492;-66
2022/12/15 01:53:05;;;;;;;23.83;4.20;;;;;;;23.45;54.34;98239.75;7314783;19;129559;-65
2022/12/15 01:55:31;;;;;;;27.40;4.37;;;;;;;23.35;54.69;98250.53;7315387;19;129231;-65
2022/12/15 01:58:01;;;;;;;29.83;4.37;;;;;;;23.32;54.83;98250.88;7311934;19;129863;-64
2022/12/15 02:00:26;;;;;;;32.50;5.50;;;;;;;23.22;55.14;98258.22;7313797;19;129654;-66
2022/12/15 02:02:53;;;;;;;41.50;5.60;;;;;;;23.15;55.04;98257.31;7311783;19;131964;-62
2022/12/15 02:05:20;;;;;;;39.80;5.50;;;;;;;23.04;54.87;98250.69;7314298;19;128956;-65
2022/12/15 02:07:45;;;;;;;62.20;7.35;;;;;;;23.02;55.20;98262.38;7314068;19;129112;-65
2022/12/15 02:10:11;;;;;;;20.00;4.50;;;;;;;23.02;55.23;98259.75;7312299;19;129737;-62
2022/12/15 02:12:44;;;;;;;20.98;3.95;;;;;;;23.05;55.25;98259.41;7315411;19;129558;-62
2022/12/15 02:15:12;;;;;;;46.33;5.78;;;;;;;23.02;55.06;98259.75;7313788;19;128852;-66
2022/12/15 02:17:46;;;;;;;43.35;5.93;;;;;;;23.08;55.23;98256.41;7311806;19;129851;-66
2022/12/15 02:20:38;;;;;;;56.47;6.55;;;;;;;23.12;55.46;98257.69;7310006;19;130935;-63
2022/12/15 02:23:21;;;;;;;27.83;4.40;;;;;;;23.08;54.48;98245.91;7313581;19;129318;-65
2022/12/15 02:26:22;;;;;;;53.80;6.05;;;;;;;23.20;54.81;98265.44;7311201;19;129781;-66
2022/12/15 02:29:09;;;;;;;43.13;5.60;;;;;;;23.30;54.60;98270.44;7311884;19;129313;-67
2022/12/15 02:31:48;;;;;;;40.95;5.18;;;;;;;23.31;54.84;98266.81;7309300;19;129795;-65
2022/12/15 02:34:22;;;;;;;50.05;6.15;;;;;;;23.36;54.66;98270.50;7313095;19;129581;-64
2022/12/15 02:37:04;;;;;;;39.15;5.45;;;;;;;23.41;54.55;98276.03;7309915;19;130310;-67
2022/12/15 02:39:29;;;;;;;27.52;4.43;;;;;;;23.44;53.84;98270.41;7314687;19;129257;-66
2022/12/15 02:41:55;;;;;;;27.77;4.53;;;;;;;23.37;54.40;98259.03;7309233;19;129132;-66
2022/12/15 02:44:29;;;;;;;42.90;5.95;;;;;;;23.45;54.64;98269.44;7313134;19;129576;-63
2022/12/15 02:47:17;;;;;;;38.95;5.03;;;;;;;23.36;54.48;98270.50;7305350;19;129993;-65
2022/12/15 02:50:04;;;;;;;56.22;6.30;;;;;;;23.26;54.81;98262.09;7313188;19;129245;-65
2022/12/15 02:52:48;;;;;;;53.70;6.40;;;;;;;23.25;55.30;98269.13;7311295;19;129804;-66
2022/12/15 02:55:22;;;;;;;59.88;6.72;;;;;;;23.18;55.78;98273.50;7309288;19;130822;-66
2022/12/15 02:58:06;;;;;;;37.50;5.40;;;;;;;23.07;55.14;98273.94;7312082;19;130221;-66
2022/12/15 03:00:37;;;;;;;58.20;6.80;;;;;;;23.03;55.11;98277.09;7307476;19;128949;-66
2022/12/15 03:03:03;;;;;;;24.75;4.63;;;;;;;23.04;55.96;98282.16;7310556;19;129958;-63
2022/12/15 03:05:30;;;;;;;33.73;4.83;;;;;;;23.04;55.49;98281.34;7309413;19;131069;-66
2022/12/15 03:07:56;;;;;;;48.55;5.75;;;;;;;23.06;55.81;98289.84;7313450;19;129412;-66
2022/12/15 03:10:24;;;;;;;59.67;6.72;;;;;;;23.02;55.36;98278.09;7312300;19;129136;-64
2022/12/15 03:12:50;;;;;;;16.10;3.75;;;;;;;23.12;55.14;98294.38;7310821;19;130270;-64
2022/12/15 03:15:16;;;;;;;51.03;6.03;;;;;;;23.17;55.34;98292.03;7310064;19;130230;-64
2022/12/15 03:17:42;;;;;;;39.88;4.95;;;;;;;23.27;54.82;98305.69;7310066;19;129525;-68
2022/12/15 03:20:08;;;;;;;36.23;5.27;;;;;;;23.25;55.03;98299.81;7310745;19;129933;-66
2022/12/15 03:22:34;;;;;;;24.50;4.17;;;;;;;23.34;54.32;98305.81;7310549;19;129146;-67
2022/12/15 03:25:00;;;;;;;56.33;6.70;;;;;;;23.35;54.49;98310.88;7311203;19;129573;-66
2022/12/15 03:27:25;;;;;;;41.35;5.00;;;;;;;23.35;54.84;98316.13;7312179;19;129021;-67
2022/12/15 03:29:50;;;;;;;33.40;4.80;;;;;;;23.44;54.58;98320.25;7312114;19;128873;-65
2022/12/15 03:32:16;;;;;;;90.13;8.77;;;;;;;23.39;54.24;98311.31;7307058;19;130725;-65
2022/12/15 03:34:41;;;;;;;45.58;5.45;;;;;;;23.46;54.59;98326.13;7310440;19;130208;-67
2022/12/15 03:37:07;;;;;;;53.50;6.30;;;;;;;23.44;54.32;98335.16;7311951;19;129270;-67
2022/12/15 03:39:32;;;;;;;18.35;3.90;;;;;;;23.44;54.04;98335.16;7306140;19;130188;-64
2022/12/15 03:41:58;;;;;;;22.10;4.23;;;;;;;23.49;54.17;98341.50;7309056;19;130290;-64
2022/12/15 03:44:23;;;;;;;46.40;5.80;;;;;;;23.55;53.83;98345.22;7308719;19;129172;-65
2022/12/15 03:46:48;;;;;;;40.80;5.35;;;;;;;23.56;53.64;98350.28;7311217;19;129019;-65
2022/12/15 03:49:14;;;;;;;34.73;5.03;;;;;;;23.69;53.77;98345.19;7308787;19;129477;-68
2022/12/15 03:51:39;;;;;;;24.98;4.10;;;;;;;23.82;53.60;98353.22;7309926;19;129409;-68
2022/12/15 03:54:04;;;;;;;22.73;4.27;;;;;;;23.86;53.47;98354.50;7309980;19;130156;-68
2022/12/15 03:56:30;;;;;;;39.23;5.33;;;;;;;23.96;52.89;98349.78;7311511;19;129147;-68
2022/12/15 03:58:55;;;;;;;24.33;3.90;;;;;;;24.00;52.76;98352.84;7304966;19;129364;-68
2022/12/15 04:01:33;;;;;;;49.63;6.10;;;;;;;24.05;52.61;98353.94;7305529;19;129677;-67
2022/12/15 04:03:59;;;;;;;22.77;3.92;;;;;;;24.18;52.53;98355.91;7311600;19;129692;-65
2022/12/15 04:06:24;;;;;;;52.83;5.83;;;;;;;24.24;51.91;98358.59;7312968;19;129465;-69
2022/12/15 04:08:49;;;;;;;35.03;4.83;;;;;;;24.22;52.21;98357.97;7308631;19;129511;-66
2022/12/15 04:11:15;;;;;;;37.97;5.07;;;;;;;24.26;51.71;98361.81;7308058;19;129700;-68
2022/12/15 04:13:41;;;;;;;31.73;4.70;;;;;;;24.31;52.20;98369.16;7310351;19;129798;-68
2022/12/15 04:16:06;;;;;;;34.20;4.50;;;;;;;24.28;52.19;98380.84;7308158;19;128917;-68
2022/12/15 04:18:32;;;;;;;31.23;4.50;;;;;;;24.30;52.06;98389.38;7308728;19;130429;-65
2022/12/15 04:20:57;;;;;;;26.57;4.17;;;;;;;24.29;52.07;98395.63;7306093;19;131318;-65
2022/12/15 04:23:22;;;;;;;48.90;5.53;;;;;;;24.27;52.04;98397.63;7309606;19;129780;-65
2022/12/15 05:31:50;;;;;;;36.03;5.32;;;;;;;22.84;55.43;98468.94;7308728;19;129878;-67
2022/12/15 05:34:19;;;;;;;41.90;5.72;;;;;;;22.89;55.63;98475.28;7314966;19;129710;-68
2022/12/15 05:36:44;;;;;;;46.53;6.22;;;;;;;22.83;54.93;98457.66;7311147;19;130079;-66
2022/12/15 05:39:09;;;;;;;28.67;4.47;;;;;;;22.92;55.23;98477.53;7313246;19;129534;-64
2022/12/15 05:41:35;;;;;;;37.35;5.53;;;;;;;22.92;55.70;98474.13;7309699;19;129455;-64
2022/12/15 05:44:00;;;;;;;59.13;6.83;;;;;;;22.94;55.23;98474.78;7312110;19;130703;-64
2022/12/15 05:46:25;;;;;;;49.20;6.30;;;;;;;22.95;55.33;98476.41;7309760;19;130880;-64
2022/12/15 05:48:51;;;;;;;30.00;5.30;;;;;;;22.98;55.48;98479.47;7315031;19;129417;-65
2022/12/15 05:51:16;;;;;;;66.80;7.33;;;;;;;23.02;55.22;98485.19;7310528;19;129594;-66
2022/12/15 05:53:42;;;;;;;23.83;4.40;;;;;;;23.07;55.09;98490.72;7313409;19;129125;-63
2022/12/15 05:56:12;;;;;;;44.63;5.65;;;;;;;23.06;54.65;98489.91;7310977;19;130490;-62
2022/12/15 05:58:38;;;;;;;21.23;4.53;;;;;;;23.01;55.61;98501.91;7312189;19;130256;-70
2022/12/15 06:01:05;;;;;;;45.57;5.37;;;;;;;23.08;55.29;98502.84;7310169;19;129543;-66
2022/12/15 06:03:31;;;;;;;31.42;4.80;;;;;;;23.11;55.44;98505.09;7316474;19;130278;-66
2022/12/15 06:05:57;;;;;;;28.33;4.93;;;;;;;23.07;53.69;98511.69;7312366;19;129322;-66
2022/12/15 06:08:22;;;;;;;42.60;6.30;;;;;;;23.17;54.10;98517.53;7309927;19;129511;-64
2022/12/15 06:10:55;;;;;;;63.33;7.17;;;;;;;23.14;53.89;98523.91;7310507;19;129265;-65
2022/12/15 06:13:22;;;;;;;65.82;7.47;;;;;;;23.20;54.49;98525.03;7312678;19;129570;-64
2022/12/15 06:15:57;;;;;;;;;;;;;;;23.20;54.37;98522.41;7312672;19;130446;-67
2022/12/15 06:18:24;;;;;;;44.22;6.55;;;;;;;23.23;54.38;98524.69;7311784;19;132970;-68
2022/12/15 06:20:55;;;;;;;59.50;7.20;;;;;;;23.30;54.39;98523.03;7306786;19;129089;-67
2022/12/15 06:23:20;;;;;;;62.58;7.40;;;;;;;23.33;53.73;98527.09;7311165;19;130242;-66
2022/12/15 06:25:46;;;;;;;67.80;7.60;;;;;;;23.41;53.67;98535.72;7303898;19;130952;-67
2022/12/15 06:28:11;;;;;;;56.43;7.53;;;;;;;23.38;53.59;98532.63;7310027;19;130888;-66
2022/12/15 06:30:37;;;;;;;56.33;6.55;;;;;;;23.41;53.56;98534.88;7308480;19;130573;-65
2022/12/15 06:33:03;;;;;;;43.40;5.80;;;;;;;23.42;53.77;98537.31;7308993;19;129825;-66
2022/12/15 06:35:28;;;;;;;27.83;5.07;;;;;;;23.41;54.11;98537.50;7309564;19;132029;-62
2022/12/15 06:37:53;;;;;;;36.80;5.53;;;;;;;23.50;53.49;98545.16;7309017;19;129482;-63
2022/12/15 06:40:19;;;;;;;61.45;7.50;;;;;;;23.45;54.00;98547.50;7308204;19;129122;-62
2022/12/15 06:42:44;;;;;;;40.60;5.93;;;;;;;23.48;53.66;98549.75;7311965;19;130393;-65
2022/12/15 06:45:09;;;;;;;39.03;5.77;;;;;;;23.48;53.56;98562.88;7309300;19;129563;-63
2022/12/15 06:47:35;;;;;;;24.67;4.80;;;;;;;23.51;53.87;98552.03;7310372;19;130531;-65
2022/12/15 06:50:00;;;;;;;42.47;5.63;;;;;;;23.55;53.43;98569.03;7310682;19;132328;-66
2022/12/15 06:52:26;;;;;;;36.23;5.07;;;;;;;23.53;54.19;98571.03;7312810;19;128841;-68
2022/12/15 06:54:51;;;;;;;68.43;8.40;;;;;;;23.58;53.64;98573.13;7310012;19;129698;-65
2022/12/15 06:57:17;;;;;;;92.85;9.63;;;;;;;23.55;53.36;98582.16;7294855;19;131210;-65
2022/12/15 06:59:42;;;;;;;54.87;6.63;;;;;;;23.60;53.94;98582.44;7307371;19;131487;-68
2022/12/15 07:02:16;;;;;;;55.90;7.10;;;;;;;23.56;53.73;98578.53;7307127;19;129611;-69
2022/12/15 07:04:42;;;;;;;29.00;4.72;;;;;;;23.63;53.52;98579.47;7310851;19;130032;-67
2022/12/15 07:07:10;;;;;;;33.72;4.78;;;;;;;23.59;53.78;98580.81;7309105;19;132936;-66
2022/12/15 07:09:39;;;;;;;42.05;5.38;;;;;;;23.61;53.45;98583.25;7307751;19;129868;-65
2022/12/15 07:12:04;;;;;;;57.63;6.97;;;;;;;23.61;54.00;98586.69;7303292;19;129650;-66
2022/12/15 07:14:30;;;;;;;60.55;6.60;;;;;;;23.64;54.01;98591.59;7306533;19;134686;-64
2022/12/15 07:16:55;;;;;;;28.38;4.80;;;;;;;23.64;53.43;98599.47;7308129;19;129776;-67
2022/12/15 07:19:20;;;;;;;60.30;6.80;;;;;;;23.68;53.89;98603.38;7309290;19;129097;-64
2022/12/15 07:21:46;;;;;;;51.75;6.32;;;;;;;23.60;53.99;98603.41;7308231;19;129173;-67
2022/12/15 07:24:11;;;;;;;74.10;8.10;;;;;;;23.62;54.19;98601.44;7305466;19;129052;-66
2022/12/15 07:26:37;;;;;;;28.07;5.10;;;;;;;23.57;53.76;98609.03;7306169;19;129697;-64
2022/12/15 07:29:03;;;;;;;49.33;5.83;;;;;;;23.57;54.23;98601.16;7307313;19;129786;-67
2022/12/15 07:31:30;;;;;;;50.53;6.47;;;;;;;23.53;53.79;98610.38;7305571;19;129367;-66
2022/12/15 07:33:57;;;;;;;50.65;6.30;;;;;;;23.56;54.27;98612.66;7305947;19;129081;-66
2022/12/15 07:36:23;;;;;;;55.10;6.72;;;;;;;23.56;53.66;98620.53;7308826;19;130057;-67
2022/12/15 07:38:48;;;;;;;78.63;7.80;;;;;;;23.55;54.41;98620.69;7304853;19;129128;-65
2022/12/15 07:41:13;;;;;;;47.57;5.63;;;;;;;23.51;54.53;98625.47;7304991;19;131048;-66
2022/12/15 07:43:39;;;;;;;77.27;7.53;;;;;;;23.54;54.20;98624.31;7307799;19;129146;-65
2022/12/15 07:46:04;;;;;;;64.17;6.83;;;;;;;23.49;54.29;98627.47;7307972;19;132484;-64
2022/12/15 07:48:31;;;;;;;43.25;5.07;;;;;;;23.58;54.27;98631.66;7305633;19;129408;-64
2022/12/15 07:50:57;;;;;;;79.32;8.60;;;;;;;23.60;54.19;98645.41;7302045;19;129567;-65
2022/12/15 07:53:24;;;;;;;70.38;7.45;;;;;;;23.55;54.13;98642.50;7304433;19;129553;-63
2022/12/15 07:55:55;;;;;;;43.30;5.32;;;;;;;23.59;54.33;98646.41;7304728;19;129141;-64
2022/12/15 07:58:20;;;;;;;46.55;5.90;;;;;;;23.62;53.61;98640.81;7306257;19;129089;-62
2022/12/15 08:00:45;;;;;;;49.57;5.83;;;;;;;23.62;54.11;98632.94;7305967;19;131190;-70
2022/12/15 08:03:11;;;;;;;35.47;5.10;;;;;;;23.58;53.74;98630.84;7295531;19;129560;-68
2022/12/15 08:05:36;;;;;;;51.83;5.78;;;;;;;23.54;54.22;98635.63;7302834;19;131072;-68
2022/12/15 08:08:01;;;;;;;45.17;5.30;;;;;;;23.51;53.97;98633.34;7311648;19;129359;-69
2022/12/15 08:10:27;;;;;;;42.42;5.35;;;;;;;23.49;54.08;98631.88;7309805;19;129470;-68
2022/12/15 08:12:52;;;;;;;62.45;7.32;;;;;;;23.36;54.91;98640.34;7312192;19;129568;-67
2022/12/15 08:15:18;;;;;;;44.63;5.97;;;;;;;23.31;55.09;98636.59;7308455;19;132234;-67
2022/12/15 08:17:44;;;;;;;47.50;5.30;;;;;;;23.30;55.59;98648.09;7311184;19;129202;-69
2022/12/15 08:20:10;;;;;;;45.53;5.78;;;;;;;23.23;55.41;98647.94;7305632;19;129078;-68
2022/12/15 08:22:35;;;;;;;28.67;4.85;;;;;;;23.20;55.47;98648.28;7308706;19;129627;-66
2022/12/15 08:25:00;;;;;;;57.03;6.70;;;;;;;23.16;55.10;98657.47;7308035;19;130437;-68
2022/12/15 08:27:26;;;;;;;39.77;4.80;;;;;;;23.15;55.39;98653.22;7310255;19;131416;-68
2022/12/15 08:29:51;;;;;;;37.90;5.00;;;;;;;23.18;55.47;98655.50;7312999;19;129168;-68
2022/12/15 08:32:17;;;;;;;48.10;5.97;;;;;;;23.13;55.18;98637.66;7313885;19;129321;-68
2022/12/15 08:34:42;;;;;;;67.33;7.90;;;;;;;23.18;55.50;98656.31;7313522;19;133963;-67
2022/12/15 08:37:08;;;;;;;18.90;3.83;;;;;;;23.15;55.56;98655.84;7317075;19;129094;-69
2022/12/15 08:39:33;;;;;;;30.67;5.07;;;;;;;23.19;55.24;98678.94;7313128;19;128935;-68
2022/12/15 08:41:58;;;;;;;38.10;5.15;;;;;;;23.22;54.79;98685.66;7320758;19;132042;-67
2022/12/15 08:44:24;;;;;;;75.20;7.57;;;;;;;23.23;55.56;98679.41;7315290;19;129622;-66
2022/12/15 08:46:50;;;;;;;115.93;11.40;;;;;;;23.31;55.30;98686.44;7310046;19;128831;-65
2022/12/15 08:49:15;;;;;;;65.17;7.43;;;;;;;23.23;55.23;98679.41;7311775;19;132783;-67
2022/12/15 08:51:40;;;;;;;27.40;4.30;;;;;;;23.24;54.86;98691.50;7308420;19;132905;-67
2022/12/15 08:54:06;;;;;;;56.50;5.80;;;;;;;23.28;55.15;98687.59;7306997;19;129614;-69
2022/12/15 08:56:31;;;;;;;8.27;3.00;;;;;;;23.30;54.90;98687.44;7314362;19;129161;-68
2022/12/15 08:59:01;;;;;;;40.77;5.43;;;;;;;23.31;54.54;98684.63;7315273;19;129552;-65
2022/12/15 09:01:30;;;;;;;34.25;4.68;;;;;;;23.28;54.72;98689.41;7313038;19;131378;-65
2022/12/15 09:03:56;;;;;;;54.05;5.85;;;;;;;23.30;55.18;98690.06;7314219;19;132713;-67
2022/12/15 09:06:27;;;;;;;41.40;5.65;;;;;;;23.29;55.04;98686.59;7315031;19;128883;-68
2022/12/15 09:08:55;;;;;;;54.78;6.28;;;;;;;23.24;54.98;98692.34;7314023;19;129136;-67
2022/12/15 09:11:21;;;;;;;59.40;6.53;;;;;;;23.28;54.71;98684.97;7312873;19;131968;-68
2022/12/15 09:13:47;;;;;;;41.58;4.97;;;;;;;23.24;55.07;98675.78;7315942;19;131056;-65
2022/12/15 09:16:14;;;;;;;47.15;5.43;;;;;;;23.34;54.65;98691.34;7315905;19;128787;-65
2022/12/15 09:18:42;;;;;;;27.42;4.05;;;;;;;23.36;54.79;98695.41;7314793;19;129582;-68
2022/12/15 09:21:12;;;;;;;12.68;3.25;;;;;;;23.36;55.14;98690.19;7311807;19;131883;-67
2022/12/15 09:23:38;;;;;;;30.88;4.05;;;;;;;23.37;54.97;98689.16;7316480;19;129175;-68
2022/12/15 09:26:06;;;;;;;20.17;3.90;;;;;;;23.37;54.76;98699.66;7316680;19;129273;-67
2022/12/15 09:28:32;;;;;;;26.15;4.13;;;;;;;23.35;54.47;98704.28;7315891;19;129412;-67
2022/12/15 09:31:09;;;;;;;32.10;4.45;;;;;;;23.41;55.01;98702.75;7313703;19;131477;-65
2022/12/15 09:33:36;;;;;;;12.50;2.90;;;;;;;23.40;55.00;98703.78;7315663;19;130167;-67
2022/12/15 09:36:02;;;;;;;69.95;6.57;;;;;;;23.43;54.32;98709.50;7326105;19;128854;-66
2022/12/15 09:38:28;;;;;;;16.27;3.70;;;;;;;23.40;54.68;98701.16;7312142;19;130918;-64
2022/12/15 09:40:53;;;;;;;24.33;4.07;;;;;;;23.42;54.53;98696.53;7312417;19;129449;-67
2022/12/15 09:43:22;;;;;;;41.67;5.23;;;;;;;23.46;54.80;98696.03;7315247;19;129469;-67
2022/12/15 09:45:55;;;;;;;50.80;5.47;;;;;;;23.47;54.85;98699.47;7314663;19;129513;-67
2022/12/15 09:48:24;;;;;;;42.58;5.40;;;;;;;23.45;54.20;98693.56;7311677;19;129088;-67
2022/12/15 09:50:53;;;;;;;44.38;5.45;;;;;;;23.43;54.33;98696.38;7312562;19;130578;-68
2022/12/15 09:53:24;;;;;;;55.25;6.30;;;;;;;23.41;54.46;98700.97;7313265;19;129722;-67
2022/12/15 09:55:56;;;;;;;31.80;4.50;;;;;;;23.38;54.62;98706.56;7310990;19;129825;-68
2022/12/15 09:58:45;;;;;;;49.22;5.18;;;;;;;23.32;55.25;98709.84;7315499;19;129288;-68
2022/12/15 10:01:22;;;;;;;52.70;5.78;;;;;;;23.26;55.63;98715.78;7312848;19;128974;-67
2022/12/15 10:03:59;;;;;;;39.70;5.03;;;;;;;23.30;55.30;98711.84;7314867;19;129883;-66
2022/12/15 10:06:57;;;;;;;53.53;6.15;;;;;;;23.32;54.96;98725.59;7314875;19;129231;-67
2022/12/15 10:09:28;;;;;;;46.27;5.10;;;;;;;23.31;54.82;98723.16;7314123;19;129482;-67
2022/12/15 10:11:59;;;;;;;35.40;4.57;;;;;;;23.34;55.21;98722.81;7313544;19;129336;-67
2022/12/15 10:14:34;;;;;;;31.50;4.22;;;;;;;23.33;55.11;98722.00;7314686;19;129319;-69
2022/12/15 10:17:32;;;;;;;26.85;3.80;;;;;;;23.21;54.82;98704.97;7314117;19;129333;-68
2022/12/15 10:20:28;;;;;;;34.53;4.63;;;;;;;23.30;55.20;98724.97;7311413;19;129503;-68
2022/12/15 10:22:58;;;;;;;30.60;4.30;;;;;;;23.33;54.84;98724.63;7313974;19;129429;-73
2022/12/15 10:25:28;;;;;;;37.70;5.05;;;;;;;23.35;54.61;98730.53;7311438;19;130107;-65
2022/12/15 10:28:05;;;;;;;27.10;3.90;;;;;;;23.36;55.19;98731.31;7313635;19;129219;-67
2022/12/15 10:30:32;;;;;;;27.13;3.70;;;;;;;23.38;55.28;98740.66;7314251;19;128984;-67
2022/12/15 10:33:07;;;;;;;;;;;;;;;23.34;54.56;98741.97;7322086;19;129806;-65
2022/12/15 10:35:34;;;;;;;39.20;4.78;;;;;;;23.36;54.91;98733.94;7311900;19;132518;-68
2022/12/15 10:38:03;;;;;;;22.58;3.30;;;;;;;23.39;54.95;98734.41;7312480;19;129187;-67
2022/12/15 10:40:45;;;;;;;34.03;4.57;;;;;;;23.38;55.27;98740.66;7309558;19;129162;-65
2022/12/15 10:43:23;;;;;;;40.90;4.93;;;;;;;23.40;54.54;98736.06;7312037;19;132598;-68
2022/12/15 10:46:00;;;;;;;49.88;5.22;;;;;;;23.41;54.63;98737.69;7309668;19;129445;-67
2022/12/15 10:48:25;;;;;;;51.83;5.65;;;;;;;23.45;54.21;98741.63;7310882;19;129052;-67
2022/12/15 10:50:50;;;;;;;24.13;4.03;;;;;;;23.46;54.28;98745.03;7308463;19;130119;-64
2022/12/15 10:53:38;;;;;;;43.17;5.03;;;;;;;23.46;54.79;98737.16;7308889;19;129070;-67
2022/12/15 10:56:06;;;;;;;21.42;3.63;;;;;;;23.45;54.48;98741.63;7309446;19;132359;-68
2022/12/15 10:58:43;;;;;;;45.97;4.75;;;;;;;23.39;54.67;98744.13;7308149;19;129479;-67
2022/12/15 11:01:14;;;;;;;;;;;;;;;23.29;55.07;98741.69;7312619;19;129154;-67
2022/12/15 11:03:40;;;;;;;32.10;3.92;;;;;;;23.23;55.37;98737.91;7311503;19;129183;-67
2022/12/15 11:06:16;;;;;;;25.65;3.78;;;;;;;23.29;55.45;98751.38;7310839;19;129643;-66
2022/12/15 11:08:43;;;;;;;52.20;5.40;;;;;;;23.31;54.81;98747.56;7311959;19;128942;-68
2022/12/15 11:14:22;;;;;;;44.05;4.85;;;;;;;23.31;55.23;98754.63;7311920;19;129892;-65
2022/12/15 11:16:55;;;;;;;34.45;4.47;;;;;;;23.31;55.50;98737.09;7311433;19;130095;-65
2022/12/15 11:19:26;;;;;;;35.63;4.78;;;;;;;23.35;54.89;98746.25;7311316;19;131222;-66
2022/12/15 11:21:58;;;;;;;31.48;4.22;;;;;;;23.31;54.73;98737.09;7309874;19;128812;-68
2022/12/15 11:24:48;;;;;;;37.33;4.50;;;;;;;23.32;55.44;98745.78;7312743;19;129394;-67
2022/12/15 11:27:30;;;;;;;19.67;3.45;;;;;;;23.31;55.20;98749.38;7323887;19;129623;-68
2022/12/15 11:30:14;;;;;;;39.35;4.90;;;;;;;23.33;54.90;98736.91;7309742;19;129494;-67
2022/12/15 11:32:47;;;;;;;28.58;3.80;;;;;;;23.38;54.80;98739.84;7310458;19;130295;-65
2022/12/15 11:35:16;;;;;;;31.73;4.13;;;;;;;23.35;54.91;98746.25;7311269;19;131282;-65
2022/12/15 11:37:55;;;;;;;19.42;3.22;;;;;;;23.27;55.08;98722.66;7311150;19;130078;-65
2022/12/15 11:40:39;;;;;;;26.70;3.78;;;;;;;23.38;54.65;98735.41;7307172;19;129465;-68
2022/12/15 11:43:42;;;;;;;33.45;4.03;;;;;;;23.40;55.34;98728.19;7309337;19;129973;-66
2022/12/15 11:46:25;;;;;;;30.88;3.78;;;;;;;23.39;54.77;98741.50;7310132;19;129093;-68
2022/12/15 11:49:12;;;;;;;51.58;5.82;;;;;;;23.42;55.39;98736.69;7308877;19;130137;-68
2022/12/15 11:51:58;;;;;;;25.17;3.60;;;;;;;23.29;54.99;98725.16;7309991;19;129138;-67
2022/12/15 11:54:41;;;;;;;43.17;4.88;;;;;;;23.29;54.86;98725.94;7310149;19;128952;-67
2022/12/15 11:57:34;;;;;;;42.35;4.20;;;;;;;23.31;55.01;98742.34;7310997;19;129195;-67
2022/12/15 12:00:18;;;;;;;32.70;3.70;;;;;;;23.29;55.35;98736.44;7309178;19;129385;-66
2022/12/15 12:03:25;;;;;;;39.33;4.15;;;;;;;23.24;55.27;98738.72;7310454;19;129019;-67
2022/12/15 12:05:58;;;;;;;30.05;3.75;;;;;;;23.24;55.71;98733.47;7320423;19;129283;-66
2022/12/15 12:08:45;;;;;;;39.05;4.45;;;;;;;23.30;55.65;98747.75;7325732;19;128992;-67
2022/12/15 12:11:14;;;;;;;35.53;3.80;;;;;;;23.25;55.24;98735.13;7322407;19;132927;-67
2022/12/15 12:13:49;;;;;;;46.35;4.70;;;;;;;23.27;55.41;98732.38;7324575;19;131684;-66
2022/12/15 12:16:30;;;;;;;36.78;4.22;;;;;;;23.26;55.16;98726.25;7324652;19;128795;-67
2022/12/15 12:19:03;;;;;;;15.15;2.92;;;;;;;23.27;55.82;98724.50;7325086;19;129271;-67
2022/12/15 12:21:36;;;;;;;79.72;7.70;;;;;;;23.34;55.83;98723.63;7317065;19;130305;-67
2022/12/15 12:24:10;;;;;;;42.50;4.53;;;;;;;23.32;55.25;98724.81;7319609;19;131213;-66
2022/12/15 12:26:36;;;;;;;36.40;4.15;;;;;;;23.33;55.05;98729.03;7318111;19;129432;-66
2022/12/15 12:29:31;;;;;;;40.63;4.30;;;;;;;23.33;54.93;98716.75;7323271;19;129263;-66
2022/12/15 12:32:08;;;;;;;42.67;4.38;;;;;;;23.35;55.64;98717.41;7315965;19;130524;-65
2022/12/15 12:35:01;;;;;;;50.53;4.85;;;;;;;23.37;55.62;98728.53;7321821;19;129047;-67
2022/12/15 12:37:55;;;;;;;65.47;5.65;;;;;;;23.24;55.15;98699.38;7318451;19;129587;-68
2022/12/15 12:41:02;;;;;;;50.40;4.90;;;;;;;23.36;55.57;98718.19;7312715;19;130677;-67
2022/12/15 12:43:31;;;;;;;35.58;3.95;;;;;;;23.39;55.26;98716.06;7320112;19;131818;-67
2022/12/15 12:46:19;;;;;;;43.15;4.40;;;;;;;23.27;55.13;98693.81;7320782;19;130444;-64
2022/12/15 12:49:04;;;;;;;;;;;;;;;23.21;54.99;98689.25;7321561;19;129480;-68
2022/12/15 12:51:36;;;;;;;42.08;4.30;;;;;;;23.30;55.59;98716.28;7318580;19;132792;-67
2022/12/15 12:54:29;;;;;;;32.60;3.50;;;;;;;23.31;55.55;98713.47;7318415;19;132805;-65
2022/12/15 12:56:55;;;;;;;56.53;5.28;;;;;;;23.27;55.87;98712.19;7321899;19;129097;-63
2022/12/15 12:59:29;;;;;;;73.37;6.87;;;;;;;23.25;55.96;98725.44;7317692;19;130138;-66
2022/12/15 13:01:56;;;;;;;51.35;5.20;;;;;;;23.23;55.60;98724.81;7313144;19;130050;-71
2022/12/15 13:04:27;;;;;;;42.20;4.88;;;;;;;23.24;55.84;98709.88;7318839;19;129503;-65
2022/12/15 13:07:06;;;;;;;49.90;5.20;;;;;;;23.25;55.23;98720.19;7317148;19;129704;-67
2022/12/15 13:09:42;;;;;;;46.22;4.45;;;;;;;23.24;55.85;98726.44;7319065;19;129909;-65
2022/12/15 13:12:45;;;;;;;40.38;4.57;;;;;;;23.24;55.84;98730.84;7310838;19;129602;-64
2022/12/15 13:15:21;;;;;;;73.07;6.35;;;;;;;23.26;55.80;98718.38;7311644;19;132085;-64
2022/12/15 13:17:53;;;;;;;49.50;4.78;;;;;;;23.29;55.70;98712.81;7316818;19;129374;-66
2022/12/15 13:20:30;;;;;;;76.80;7.10;;;;;;;23.31;55.36;98713.47;7307437;19;129757;-65
2022/12/15 13:23:22;;;;;;;72.05;6.45;;;;;;;23.28;55.55;98719.06;7310006;19;129926;-65
2022/12/15 13:25:56;;;;;;;50.67;5.03;;;;;;;23.36;55.34;98716.41;7309273;19;131705;-68
2022/12/15 13:28:24;;;;;;;46.78;4.88;;;;;;;23.37;55.25;98712.00;7311094;19;129018;-67
2022/12/15 13:31:20;;;;;;;48.78;5.10;;;;;;;23.31;55.71;98712.66;7309164;19;129123;-66
2022/12/15 13:33:56;;;;;;;37.63;3.92;;;;;;;23.19;55.31;98699.06;7310305;19;131738;-66
2022/12/15 13:36:36;;;;;;;37.67;4.00;;;;;;;23.23;55.30;98701.22;7310676;19;129988;-68
2022/12/15 13:39:22;;;;;;;62.95;5.32;;;;;;;23.34;55.13;98713.13;7311594;19;129804;-67
2022/12/15 13:41:47;;;;;;;57.58;5.20;;;;;;;23.40;54.70;98720.34;7309819;19;129151;-66
2022/12/15 13:44:31;;;;;;;74.17;6.03;;;;;;;23.37;54.69;98717.22;7310139;19;129866;-66
2022/12/15 13:47:26;;;;;;;33.30;3.50;;;;;;;23.29;55.62;98725.16;7310177;19;129793;-67
2022/12/15 13:50:00;;;;;;;40.05;4.43;;;;;;;23.25;55.16;98729.88;7310323;19;129758;-67
2022/12/15 13:52:34;;;;;;;33.60;3.90;;;;;;;23.24;55.54;98729.06;7314155;19;130700;-64
2022/12/15 13:55:02;;;;;;;69.30;6.45;;;;;;;23.23;55.67;98721.38;7311788;19;129654;-65
2022/12/15 13:57:32;;;;;;;39.65;4.32;;;;;;;23.30;55.43;98729.41;7311297;19;129621;-64
2022/12/15 14:00:06;;;;;;;44.90;4.70;;;;;;;23.25;55.47;98735.94;7311019;19;129539;-66